createdAt,value
2019-02-09T00:01:00.386Z,1012.32
2019-02-09T00:02:00.633Z,1012.29
2019-02-09T00:03:01.070Z,1012.22
2019-02-09T00:03:59.996Z,1012.23
2019-02-09T00:04:59.763Z,1012.22
2019-02-09T00:05:59.018Z,1012.25
2019-02-09T00:06:59.169Z,1012.25
2019-02-09T00:07:59.125Z,1012.27
2019-02-09T00:08:59.742Z,1012.24
2019-02-09T00:09:59.889Z,1012.22
2019-02-09T00:10:59.914Z,1012.18
2019-02-09T00:11:59.690Z,1012.17
2019-02-09T00:12:59.430Z,1012.16
2019-02-09T00:13:59.180Z,1012.17
2019-02-09T00:14:59.003Z,1012.18
2019-02-09T00:15:59.115Z,1012.14
2019-02-09T00:16:58.968Z,1012.1
2019-02-09T00:17:59.074Z,1012.08
2019-02-09T00:18:59.747Z,1012.11
2019-02-09T00:19:59.907Z,1012.09
2019-02-09T00:20:59.104Z,1011.99
2019-02-09T00:21:59.276Z,1011.9
2019-02-09T00:22:59.377Z,1011.87
2019-02-09T00:24:00.500Z,1011.87
2019-02-09T00:24:59.530Z,1011.88
2019-02-09T00:25:59.178Z,1011.85
2019-02-09T00:26:59.222Z,1011.77
2019-02-09T00:27:59.429Z,1011.74
2019-02-09T00:28:59.154Z,1011.75
2019-02-09T00:29:59.176Z,1011.72
2019-02-09T00:30:59.082Z,1011.7
2019-02-09T00:31:59.154Z,1011.68
2019-02-09T00:32:59.509Z,1011.65
2019-02-09T00:33:59.451Z,1011.64
2019-02-09T00:34:59.053Z,1011.57
2019-02-09T00:35:59.321Z,1011.45
2019-02-09T00:36:59.740Z,1011.48
2019-02-09T00:38:00.015Z,1011.46
2019-02-09T00:38:59.309Z,1011.42
2019-02-09T00:40:01.043Z,1011.36
2019-02-09T00:40:59.380Z,1011.28
2019-02-09T00:41:59.709Z,1011.24
2019-02-09T00:43:03.710Z,1011.21
2019-02-09T00:43:59.307Z,1011.16
2019-02-09T00:44:59.163Z,1011.13
2019-02-09T00:45:59.632Z,1011.18
2019-02-09T00:46:59.537Z,1011.17
2019-02-09T00:47:59.068Z,1011.14
2019-02-09T00:48:59.342Z,1011.1
2019-02-09T00:49:59.575Z,1011.1
2019-02-09T00:50:59.922Z,1011.1
2019-02-09T00:52:01.012Z,1011.07
2019-02-09T00:52:59.577Z,1011.03
2019-02-09T00:53:58.921Z,1011.04
2019-02-09T00:55:00.943Z,1011.03
2019-02-09T00:56:00.019Z,1011.03
2019-02-09T00:57:00.057Z,1011.02
2019-02-09T00:57:59.150Z,1011.02
2019-02-09T00:58:59.536Z,1011.04
2019-02-09T00:59:59.052Z,1011
2019-02-09T01:00:59.212Z,1011.02
2019-02-09T01:01:59.962Z,1011.05
2019-02-09T01:02:59.309Z,1011
2019-02-09T01:04:00.589Z,1011.04
2019-02-09T01:04:59.207Z,1011.05
2019-02-09T01:05:59.271Z,1011.01
2019-02-09T01:06:59.144Z,1010.95
2019-02-09T01:07:59.091Z,1010.93
2019-02-09T01:08:59.437Z,1010.9
2019-02-09T01:09:59.597Z,1010.86
2019-02-09T01:10:59.287Z,1010.82
2019-02-09T01:12:00.086Z,1010.84
2019-02-09T01:12:59.343Z,1010.74
2019-02-09T01:14:01.003Z,1010.68
2019-02-09T01:14:59.381Z,1010.68
2019-02-09T01:15:59.249Z,1010.67
2019-02-09T01:16:59.649Z,1010.67
2019-02-09T01:17:59.465Z,1010.65
2019-02-09T01:18:59.556Z,1010.73
2019-02-09T01:19:59.873Z,1010.7
2019-02-09T01:20:59.736Z,1010.69
2019-02-09T01:21:59.502Z,1010.74
2019-02-09T01:22:59.176Z,1010.69
2019-02-09T01:23:59.921Z,1010.69
2019-02-09T01:24:59.699Z,1010.7
2019-02-09T01:25:59.913Z,1010.67
2019-02-09T01:26:58.993Z,1010.68
2019-02-09T01:27:59.711Z,1010.68
2019-02-09T01:28:59.726Z,1010.62
2019-02-09T01:30:03.151Z,1010.6
2019-02-09T01:30:59.430Z,1010.62
2019-02-09T01:31:59.146Z,1010.58
2019-02-09T01:32:59.265Z,1010.56
2019-02-09T01:33:59.185Z,1010.57
2019-02-09T01:34:59.304Z,1010.58
2019-02-09T01:35:59.027Z,1010.61
2019-02-09T01:36:59.381Z,1010.61
2019-02-09T01:37:59.381Z,1010.64
2019-02-09T01:38:59.101Z,1010.69
2019-02-09T01:39:59.517Z,1010.71
2019-02-09T01:41:01.128Z,1010.69
2019-02-09T01:41:59.104Z,1010.67
2019-02-09T01:42:59.199Z,1010.65
2019-02-09T01:43:59.087Z,1010.71
2019-02-09T01:44:59.631Z,1010.69
2019-02-09T01:45:59.665Z,1010.67
2019-02-09T01:46:59.097Z,1010.63
2019-02-09T01:47:59.162Z,1010.65
2019-02-09T01:48:59.876Z,1010.7
2019-02-09T01:49:58.970Z,1010.72
2019-02-09T01:50:59.200Z,1010.71
2019-02-09T01:51:59.483Z,1010.75
2019-02-09T01:53:00.955Z,1010.78
2019-02-09T01:53:59.282Z,1010.78
2019-02-09T01:54:58.928Z,1010.76
2019-02-09T01:56:00.657Z,1010.82
2019-02-09T01:56:59.833Z,1010.86
2019-02-09T01:58:04.834Z,1010.85
2019-02-09T01:58:59.026Z,1010.87
2019-02-09T01:59:58.862Z,1010.92
2019-02-09T02:00:59.379Z,1010.95
2019-02-09T02:01:59.160Z,1011
2019-02-09T02:02:59.595Z,1011.07
2019-02-09T02:03:59.094Z,1011.02
2019-02-09T02:04:59.588Z,1011.04
2019-02-09T02:05:59.064Z,1011.05
2019-02-09T02:06:59.147Z,1011.06
2019-02-09T02:07:59.704Z,1011.06
2019-02-09T02:08:58.996Z,1011.06
2019-02-09T02:09:59.179Z,1011.07
2019-02-09T02:10:59.317Z,1011.08
2019-02-09T02:11:59.287Z,1011.05
2019-02-09T02:13:00.135Z,1011.05
2019-02-09T02:13:59.999Z,1011.09
2019-02-09T02:14:59.142Z,1011.07
2019-02-09T02:15:59.655Z,1011.1
2019-02-09T02:16:59.137Z,1011.07
2019-02-09T02:17:59.205Z,1011.12
2019-02-09T02:18:59.227Z,1011.09
2019-02-09T02:19:59.381Z,1011.15
2019-02-09T02:20:59.189Z,1011.16
2019-02-09T02:21:59.006Z,1011.19
2019-02-09T02:22:59.210Z,1011.2
2019-02-09T02:23:59.193Z,1011.26
2019-02-09T02:24:59.326Z,1011.3
2019-02-09T02:25:59.326Z,1011.31
2019-02-09T02:26:59.200Z,1011.37
2019-02-09T02:28:00.873Z,1011.33
2019-02-09T02:28:59.248Z,1011.3
2019-02-09T02:29:59.209Z,1011.25
2019-02-09T02:30:59.063Z,1011.23
2019-02-09T02:31:59.062Z,1011.2
2019-02-09T02:32:59.236Z,1011.26
2019-02-09T02:33:59.699Z,1011.28
2019-02-09T02:34:59.136Z,1011.21
2019-02-09T02:35:58.942Z,1011.22
2019-02-09T02:37:00.890Z,1011.23
2019-02-09T02:37:59.623Z,1011.2
2019-02-09T02:38:59.634Z,1011.19
2019-02-09T02:39:58.986Z,1011.12
2019-02-09T02:40:59.342Z,1011.15
2019-02-09T02:41:59.579Z,1011.15
2019-02-09T02:42:59.129Z,1011.12
2019-02-09T02:43:59.053Z,1011.09
2019-02-09T02:44:59.897Z,1011.11
2019-02-09T02:45:59.086Z,1011.14
2019-02-09T02:47:00.835Z,1011.15
2019-02-09T02:47:59.124Z,1011.16
2019-02-09T02:48:58.993Z,1011.16
2019-02-09T02:49:59.318Z,1011.14
2019-02-09T02:50:59.409Z,1011.12
2019-02-09T02:51:59.061Z,1011.08
2019-02-09T02:52:59.307Z,1011.12
2019-02-09T02:53:59.554Z,1011.09
2019-02-09T02:54:59.658Z,1011.06
2019-02-09T02:55:58.996Z,1011.09
2019-02-09T02:56:59.954Z,1011.08
2019-02-09T02:57:59.281Z,1011.08
2019-02-09T02:59:00.049Z,1011.06
2019-02-09T02:59:59.373Z,1011.12
2019-02-09T03:01:00.019Z,1011.1
2019-02-09T03:01:59.379Z,1011.09
2019-02-09T03:02:59.073Z,1011.04
2019-02-09T03:03:59.087Z,1010.97
2019-02-09T03:04:59.279Z,1011.06
2019-02-09T03:05:59.121Z,1011.03
2019-02-09T03:06:59.043Z,1011.08
2019-02-09T03:07:59.704Z,1011.04
2019-02-09T03:08:59.273Z,1011.02
2019-02-09T03:09:59.708Z,1011.01
2019-02-09T03:10:59.287Z,1011.02
2019-02-09T03:11:59.106Z,1010.99
2019-02-09T03:12:59.383Z,1010.99
2019-02-09T03:13:59.787Z,1011.02
2019-02-09T03:14:59.132Z,1011.01
2019-02-09T03:15:59.723Z,1010.98
2019-02-09T03:16:59.113Z,1010.98
2019-02-09T03:17:59.819Z,1010.92
2019-02-09T03:18:59.116Z,1011.01
2019-02-09T03:19:59.326Z,1010.96
2019-02-09T03:20:59.889Z,1010.99
2019-02-09T03:21:59.419Z,1010.98
2019-02-09T03:22:59.533Z,1010.96
2019-02-09T03:24:00.893Z,1010.94
2019-02-09T03:24:59.242Z,1010.87
2019-02-09T03:25:59.003Z,1010.84
2019-02-09T03:26:59.880Z,1010.72
2019-02-09T03:28:00.591Z,1010.7
2019-02-09T03:28:59.801Z,1010.66
2019-02-09T03:29:59.164Z,1010.68
2019-02-09T03:30:59.185Z,1010.66
2019-02-09T03:31:59.746Z,1010.64
2019-02-09T03:32:59.835Z,1010.63
2019-02-09T03:33:59.503Z,1010.58
2019-02-09T03:35:00.580Z,1010.59
2019-02-09T03:36:00.981Z,1010.66
2019-02-09T03:36:58.887Z,1010.6
2019-02-09T03:37:59.023Z,1010.62
2019-02-09T03:38:59.474Z,1010.7
2019-02-09T03:39:59.349Z,1010.76
2019-02-09T03:40:59.348Z,1010.7
2019-02-09T03:41:59.771Z,1010.78
2019-02-09T03:42:58.958Z,1010.69
2019-02-09T03:43:59.360Z,1010.66
2019-02-09T03:44:59.289Z,1010.7
2019-02-09T03:45:59.378Z,1010.63
2019-02-09T03:46:59.602Z,1010.67
2019-02-09T03:47:59.346Z,1010.65
2019-02-09T03:48:59.096Z,1010.67
2019-02-09T03:49:59.919Z,1010.64
2019-02-09T03:50:59.155Z,1010.69
2019-02-09T03:51:59.212Z,1010.77
2019-02-09T03:52:59.168Z,1010.67
2019-02-09T03:53:59.235Z,1010.65
2019-02-09T03:54:59.185Z,1010.64
2019-02-09T03:55:59.011Z,1010.66
2019-02-09T03:56:59.308Z,1010.58
2019-02-09T03:57:59.284Z,1010.63
2019-02-09T03:58:59.423Z,1010.72
2019-02-09T03:59:59.159Z,1010.68
2019-02-09T04:00:58.993Z,1010.63
2019-02-09T04:01:59.204Z,1010.72
2019-02-09T04:02:59.320Z,1010.77
2019-02-09T04:03:59.410Z,1010.74
2019-02-09T04:04:59.243Z,1010.74
2019-02-09T04:05:59.358Z,1010.76
2019-02-09T04:06:59.345Z,1010.82
2019-02-09T04:07:59.130Z,1010.79
2019-02-09T04:08:59.254Z,1010.75
2019-02-09T04:09:59.253Z,1010.84
2019-02-09T04:10:59.095Z,1010.8
2019-02-09T04:11:59.646Z,1010.78
2019-02-09T04:12:59.229Z,1010.83
2019-02-09T04:14:00.911Z,1010.86
2019-02-09T04:14:59.137Z,1010.95
2019-02-09T04:15:58.983Z,1010.87
2019-02-09T04:17:00.949Z,1010.86
2019-02-09T04:17:59.456Z,1010.85
2019-02-09T04:18:59.258Z,1010.89
2019-02-09T04:19:59.297Z,1010.84
2019-02-09T04:20:59.539Z,1010.86
2019-02-09T04:21:59.060Z,1010.87
2019-02-09T04:23:00.925Z,1010.91
2019-02-09T04:23:59.889Z,1010.91
2019-02-09T04:24:58.898Z,1010.93
2019-02-09T04:25:59.725Z,1010.91
2019-02-09T04:26:59.277Z,1010.94
2019-02-09T04:27:59.284Z,1010.94
2019-02-09T04:28:59.067Z,1010.96
2019-02-09T04:29:59.651Z,1011.04
2019-02-09T04:31:07.048Z,1010.98
2019-02-09T04:31:59.514Z,1011.03
2019-02-09T04:33:00.351Z,1011.06
2019-02-09T04:33:59.109Z,1011.08
2019-02-09T04:34:59.275Z,1010.96
2019-02-09T04:35:59.231Z,1010.93
2019-02-09T04:36:59.106Z,1010.93
2019-02-09T04:37:59.299Z,1010.88
2019-02-09T04:38:59.074Z,1010.91
2019-02-09T04:39:59.059Z,1010.84
2019-02-09T04:40:58.905Z,1010.88
2019-02-09T04:41:59.783Z,1010.9
2019-02-09T04:42:59.112Z,1010.86
2019-02-09T04:43:59.229Z,1010.82
2019-02-09T04:44:59.492Z,1010.82
2019-02-09T04:45:59.411Z,1010.85
2019-02-09T04:46:58.988Z,1010.84
2019-02-09T04:47:59.091Z,1010.83
2019-02-09T04:48:59.348Z,1010.81
2019-02-09T04:49:59.538Z,1010.79
2019-02-09T04:50:58.929Z,1010.75
2019-02-09T04:52:00.031Z,1010.76
2019-02-09T04:52:59.983Z,1010.74
2019-02-09T04:53:59.363Z,1010.76
2019-02-09T04:54:58.926Z,1010.81
2019-02-09T04:55:59.466Z,1010.72
2019-02-09T04:56:59.394Z,1010.81
2019-02-09T04:57:59.603Z,1010.77
2019-02-09T04:58:59.321Z,1010.78
2019-02-09T04:59:59.424Z,1010.73
2019-02-09T05:00:59.033Z,1010.76
2019-02-09T05:01:59.112Z,1010.77
2019-02-09T05:02:59.269Z,1010.79
2019-02-09T05:03:59.559Z,1010.79
2019-02-09T05:04:59.265Z,1010.82
2019-02-09T05:05:59.168Z,1010.85
2019-02-09T05:07:00.867Z,1010.78
2019-02-09T05:07:59.735Z,1010.83
2019-02-09T05:08:59.390Z,1010.84
2019-02-09T05:09:59.281Z,1010.83
2019-02-09T05:10:59.350Z,1010.87
2019-02-09T05:11:59.282Z,1010.89
2019-02-09T05:12:58.967Z,1010.87
2019-02-09T05:13:59.127Z,1010.93
2019-02-09T05:14:59.205Z,1010.99
2019-02-09T05:15:59.095Z,1011.02
2019-02-09T05:16:59.931Z,1011.04
2019-02-09T05:17:59.444Z,1011.12
2019-02-09T05:18:59.527Z,1011.07
2019-02-09T05:19:58.937Z,1011.1
2019-02-09T05:20:59.402Z,1011.1
2019-02-09T05:21:58.951Z,1011.2
2019-02-09T05:22:59.250Z,1011.16
2019-02-09T05:23:59.016Z,1011.2
2019-02-09T05:25:00.981Z,1011.22
2019-02-09T05:25:58.980Z,1011.18
2019-02-09T05:27:00.035Z,1011.26
2019-02-09T05:27:58.930Z,1011.23
2019-02-09T05:28:59.221Z,1011.24
2019-02-09T05:29:59.561Z,1011.2
2019-02-09T05:30:59.286Z,1011.24
2019-02-09T05:31:59.879Z,1011.23
2019-02-09T05:33:01.405Z,1011.24
2019-02-09T05:33:58.960Z,1011.17
2019-02-09T05:34:59.239Z,1011.24
2019-02-09T05:35:59.267Z,1011.21
2019-02-09T05:36:59.115Z,1011.29
2019-02-09T05:37:59.088Z,1011.37
2019-02-09T05:38:59.181Z,1011.31
2019-02-09T05:39:59.273Z,1011.3
2019-02-09T05:40:58.888Z,1011.36
2019-02-09T05:41:58.951Z,1011.32
2019-02-09T05:42:59.147Z,1011.34
2019-02-09T05:43:58.993Z,1011.3
2019-02-09T05:44:59.096Z,1011.33
2019-02-09T05:45:59.440Z,1011.33
2019-02-09T05:46:59.047Z,1011.4
2019-02-09T05:47:59.111Z,1011.46
2019-02-09T05:48:59.464Z,1011.47
2019-02-09T05:49:59.064Z,1011.47
2019-02-09T05:51:00.821Z,1011.51
2019-02-09T05:51:59.019Z,1011.59
2019-02-09T05:52:59.805Z,1011.54
2019-02-09T05:53:59.322Z,1011.56
2019-02-09T05:54:59.106Z,1011.5
2019-02-09T05:55:58.990Z,1011.57
2019-02-09T05:56:58.974Z,1011.57
2019-02-09T05:57:59.918Z,1011.68
2019-02-09T05:58:59.828Z,1011.64
2019-02-09T05:59:59.030Z,1011.69
2019-02-09T06:00:59.426Z,1011.76
2019-02-09T06:01:59.554Z,1011.76
2019-02-09T06:03:00.377Z,1011.84
2019-02-09T06:03:59.166Z,1011.85
2019-02-09T06:04:59.586Z,1011.8
2019-02-09T06:05:59.409Z,1011.86
2019-02-09T06:06:59.756Z,1011.94
2019-02-09T06:08:00.135Z,1011.93
2019-02-09T06:08:59.232Z,1011.91
2019-02-09T06:09:59.490Z,1011.94
2019-02-09T06:10:59.736Z,1011.96
2019-02-09T06:11:59.244Z,1011.93
2019-02-09T06:12:59.049Z,1012.01
2019-02-09T06:13:59.104Z,1011.92
2019-02-09T06:14:59.256Z,1012.01
2019-02-09T06:15:59.016Z,1011.92
2019-02-09T06:16:59.048Z,1011.93
2019-02-09T06:17:58.899Z,1011.92
2019-02-09T06:18:59.072Z,1011.96
2019-02-09T06:20:00.429Z,1011.92
2019-02-09T06:20:59.111Z,1012.03
2019-02-09T06:21:59.670Z,1012.07
2019-02-09T06:22:58.925Z,1012.04
2019-02-09T06:23:59.350Z,1012.12
2019-02-09T06:24:59.736Z,1012.13
2019-02-09T06:25:58.838Z,1012.12
2019-02-09T06:26:59.936Z,1012.18
2019-02-09T06:27:59.225Z,1012.18
2019-02-09T06:28:58.835Z,1012.2
2019-02-09T06:29:58.937Z,1012.13
2019-02-09T06:30:59.446Z,1012.23
2019-02-09T06:31:59.238Z,1012.3
2019-02-09T06:32:59.370Z,1012.34
2019-02-09T06:33:58.992Z,1012.36
2019-02-09T06:34:58.824Z,1012.35
2019-02-09T06:35:59.017Z,1012.39
2019-02-09T06:36:59.394Z,1012.47
2019-02-09T06:37:59.795Z,1012.4
2019-02-09T06:38:59.374Z,1012.46
2019-02-09T06:39:58.921Z,1012.45
2019-02-09T06:40:58.892Z,1012.49
2019-02-09T06:41:59.550Z,1012.55
2019-02-09T06:42:58.987Z,1012.46
2019-02-09T06:43:59.196Z,1012.48
2019-02-09T06:44:59.659Z,1012.54
2019-02-09T06:45:59.241Z,1012.54
2019-02-09T06:46:59.565Z,1012.51
2019-02-09T06:47:59.059Z,1012.55
2019-02-09T06:48:59.369Z,1012.57
2019-02-09T06:49:58.905Z,1012.6
2019-02-09T06:50:59.496Z,1012.62
2019-02-09T06:51:59.269Z,1012.62
2019-02-09T06:52:59.073Z,1012.58
2019-02-09T06:53:59.322Z,1012.67
2019-02-09T06:54:59.459Z,1012.67
2019-02-09T06:56:00.908Z,1012.71
2019-02-09T06:56:58.805Z,1012.73
2019-02-09T06:57:59.012Z,1012.73
2019-02-09T06:58:59.957Z,1012.71
2019-02-09T06:59:59.274Z,1012.8
2019-02-09T07:00:59.057Z,1012.79
2019-02-09T07:01:59.044Z,1012.8
2019-02-09T07:02:59.057Z,1012.81
2019-02-09T07:03:59.913Z,1012.83
2019-02-09T07:04:59.104Z,1012.94
2019-02-09T07:05:59.009Z,1012.93
2019-02-09T07:06:59.081Z,1012.96
2019-02-09T07:07:58.850Z,1013.04
2019-02-09T07:08:59.002Z,1013.02
2019-02-09T07:09:59.150Z,1013.04
2019-02-09T07:10:59.149Z,1013.07
2019-02-09T07:11:59.268Z,1013.11
2019-02-09T07:12:58.906Z,1013.14
2019-02-09T07:13:59.143Z,1013.17
2019-02-09T07:14:59.029Z,1013.15
2019-02-09T07:15:59.143Z,1013.11
2019-02-09T07:16:59.056Z,1013.16
2019-02-09T07:17:59.056Z,1013.12
2019-02-09T07:18:59.191Z,1013.15
2019-02-09T07:19:59.300Z,1013.19
2019-02-09T07:20:58.776Z,1013.28
2019-02-09T07:21:59.650Z,1013.24
2019-02-09T07:22:59.210Z,1013.23
2019-02-09T07:23:59.018Z,1013.24
2019-02-09T07:24:59.577Z,1013.24
2019-02-09T07:25:59.146Z,1013.29
2019-02-09T07:26:58.965Z,1013.34
2019-02-09T07:27:59.057Z,1013.23
2019-02-09T07:28:58.921Z,1013.27
2019-02-09T07:29:58.972Z,1013.34
2019-02-09T07:30:59.354Z,1013.34
2019-02-09T07:31:59.117Z,1013.34
2019-02-09T07:32:58.939Z,1013.32
2019-02-09T07:33:59.206Z,1013.38
2019-02-09T07:34:59.392Z,1013.43
2019-02-09T07:35:59.152Z,1013.49
2019-02-09T07:36:59.256Z,1013.45
2019-02-09T07:37:58.720Z,1013.5
2019-02-09T07:38:58.999Z,1013.46
2019-02-09T07:39:58.882Z,1013.54
2019-02-09T07:40:58.914Z,1013.56
2019-02-09T07:41:59.644Z,1013.46
2019-02-09T07:43:00.299Z,1013.43
2019-02-09T07:43:59.038Z,1013.42
2019-02-09T07:44:59.257Z,1013.46
2019-02-09T07:45:59.089Z,1013.4
2019-02-09T07:46:59.178Z,1013.47
2019-02-09T07:47:59.412Z,1013.48
2019-02-09T07:48:58.901Z,1013.47
2019-02-09T07:49:59.542Z,1013.53
2019-02-09T07:50:58.915Z,1013.56
2019-02-09T07:51:59.406Z,1013.63
2019-02-09T07:52:59.241Z,1013.62
2019-02-09T07:53:59.316Z,1013.68
2019-02-09T07:54:59.559Z,1013.69
2019-02-09T07:55:59.966Z,1013.68
2019-02-09T07:56:59.088Z,1013.67
2019-02-09T07:57:58.928Z,1013.67
2019-02-09T07:58:59.062Z,1013.68
2019-02-09T07:59:59.146Z,1013.71
2019-02-09T08:00:59.056Z,1013.72
2019-02-09T08:02:05.039Z,1013.65
2019-02-09T08:02:58.957Z,1013.65
2019-02-09T08:03:58.963Z,1013.57
2019-02-09T08:04:58.897Z,1013.61
2019-02-09T08:05:58.921Z,1013.64
2019-02-09T08:06:59.510Z,1013.67
2019-02-09T08:08:00.881Z,1013.7
2019-02-09T08:08:59.385Z,1013.76
2019-02-09T08:09:59.646Z,1013.77
2019-02-09T08:10:59.222Z,1013.78
2019-02-09T08:11:59.197Z,1013.81
2019-02-09T08:12:59.745Z,1013.8
2019-02-09T08:13:58.983Z,1013.92
2019-02-09T08:14:58.967Z,1013.88
2019-02-09T08:15:59.369Z,1013.91
2019-02-09T08:16:59.047Z,1013.9
2019-02-09T08:17:59.588Z,1013.96
2019-02-09T08:18:59.376Z,1013.94
2019-02-09T08:19:59.047Z,1013.99
2019-02-09T08:20:59.587Z,1013.94
2019-02-09T08:21:58.873Z,1013.94
2019-02-09T08:22:59.203Z,1014.02
2019-02-09T08:23:59.323Z,1014
2019-02-09T08:24:59.220Z,1014.02
2019-02-09T08:25:59.088Z,1014.16
2019-02-09T08:26:59.768Z,1014.19
2019-02-09T08:27:59.385Z,1014.16
2019-02-09T08:28:59.689Z,1014.26
2019-02-09T08:29:59.087Z,1014.34
2019-02-09T08:31:00.022Z,1014.31
2019-02-09T08:31:59.499Z,1014.21
2019-02-09T08:32:58.897Z,1014.26
2019-02-09T08:33:59.851Z,1014.3
2019-02-09T08:34:59.914Z,1014.34
2019-02-09T08:35:58.878Z,1014.27
2019-02-09T08:36:59.308Z,1014.27
2019-02-09T08:37:59.473Z,1014.33
2019-02-09T08:38:59.131Z,1014.36
2019-02-09T08:39:59.056Z,1014.32
2019-02-09T08:41:01.634Z,1014.39
2019-02-09T08:42:01.370Z,1014.45
2019-02-09T08:43:00.873Z,1014.43
2019-02-09T08:44:00.629Z,1014.42
2019-02-09T08:45:01.487Z,1014.41
2019-02-09T08:45:59.367Z,1014.42
2019-02-09T08:46:59.087Z,1014.46
2019-02-09T08:47:59.402Z,1014.4
2019-02-09T08:49:07.233Z,1014.4
2019-02-09T08:49:59.197Z,1014.44
2019-02-09T08:50:58.928Z,1014.34
2019-02-09T08:51:59.420Z,1014.28
2019-02-09T08:52:58.848Z,1014.28
2019-02-09T08:53:59.038Z,1014.27
2019-02-09T08:54:58.850Z,1014.22
2019-02-09T08:55:59.157Z,1014.28
2019-02-09T08:56:58.759Z,1014.26
2019-02-09T08:57:59.187Z,1014.33
2019-02-09T08:58:59.048Z,1014.33
2019-02-09T08:59:58.819Z,1014.34
2019-02-09T09:00:59.087Z,1014.27
2019-02-09T09:01:59.190Z,1014.35
2019-02-09T09:02:58.813Z,1014.3
2019-02-09T09:03:59.430Z,1014.3
2019-02-09T09:04:59.047Z,1014.28
2019-02-09T09:05:58.951Z,1014.34
2019-02-09T09:06:59.118Z,1014.4
2019-02-09T09:07:58.691Z,1014.35
2019-02-09T09:09:00.720Z,1014.39
2019-02-09T09:09:58.936Z,1014.38
2019-02-09T09:10:58.982Z,1014.34
2019-02-09T09:11:59.342Z,1014.4
2019-02-09T09:12:59.004Z,1014.36
2019-02-09T09:14:00.771Z,1014.4
2019-02-09T09:14:59.657Z,1014.35
2019-02-09T09:15:58.715Z,1014.26
2019-02-09T09:16:58.820Z,1014.32
2019-02-09T09:17:59.303Z,1014.3
2019-02-09T09:18:59.104Z,1014.32
2019-02-09T09:19:58.841Z,1014.32
2019-02-09T09:20:59.362Z,1014.28
2019-02-09T09:21:59.124Z,1014.35
2019-02-09T09:22:59.342Z,1014.29
2019-02-09T09:23:58.989Z,1014.21
2019-02-09T09:24:59.745Z,1014.32
2019-02-09T09:25:59.178Z,1014.32
2019-02-09T09:27:00.288Z,1014.34
2019-02-09T09:27:59.301Z,1014.4
2019-02-09T09:28:59.168Z,1014.42
2019-02-09T09:29:59.099Z,1014.42
2019-02-09T09:30:59.151Z,1014.44
2019-02-09T09:31:59.352Z,1014.45
2019-02-09T09:32:59.234Z,1014.4
2019-02-09T09:33:59.202Z,1014.4
2019-02-09T09:35:00.304Z,1014.38
2019-02-09T09:36:05.363Z,1014.44
2019-02-09T09:36:59.073Z,1014.5
2019-02-09T09:37:59.766Z,1014.47
2019-02-09T09:38:58.865Z,1014.53
2019-02-09T09:39:58.842Z,1014.56
2019-02-09T09:40:59.413Z,1014.52
2019-02-09T09:41:58.982Z,1014.54
2019-02-09T09:42:58.999Z,1014.53
2019-02-09T09:43:59.389Z,1014.67
2019-02-09T09:44:59.304Z,1014.68
2019-02-09T09:45:59.429Z,1014.66
2019-02-09T09:47:00.716Z,1014.69
2019-02-09T09:47:59.230Z,1014.74
2019-02-09T09:49:00.859Z,1014.65
2019-02-09T09:49:59.542Z,1014.71
2019-02-09T09:51:00.164Z,1014.75
2019-02-09T09:51:59.047Z,1014.73
2019-02-09T09:52:58.704Z,1014.78
2019-02-09T09:54:00.306Z,1014.86
2019-02-09T09:54:58.834Z,1014.91
2019-02-09T09:55:58.894Z,1014.94
2019-02-09T09:57:00.625Z,1014.87
2019-02-09T09:57:58.843Z,1014.87
2019-02-09T09:59:00.734Z,1014.89
2019-02-09T09:59:58.954Z,1014.95
2019-02-09T10:00:59.329Z,1014.91
2019-02-09T10:01:59.226Z,1014.85
2019-02-09T10:02:59.234Z,1014.79
2019-02-09T10:03:59.226Z,1014.77
2019-02-09T10:04:59.250Z,1014.81
2019-02-09T10:05:58.834Z,1014.79
2019-02-09T10:06:58.869Z,1014.79
2019-02-09T10:07:59.662Z,1014.78
2019-02-09T10:08:59.142Z,1014.74
2019-02-09T10:09:59.284Z,1014.76
2019-02-09T10:11:00.833Z,1014.79
2019-02-09T10:12:00.670Z,1014.86
2019-02-09T10:12:58.930Z,1014.85
2019-02-09T10:13:59.822Z,1014.94
2019-02-09T10:14:58.707Z,1014.99
2019-02-09T10:15:59.051Z,1014.91
2019-02-09T10:16:59.733Z,1015
2019-02-09T10:17:59.013Z,1014.95
2019-02-09T10:18:58.882Z,1015.09
2019-02-09T10:19:59.168Z,1015.09
2019-02-09T10:20:59.007Z,1015.07
2019-02-09T10:22:00.718Z,1015.05
2019-02-09T10:22:58.847Z,1015.09
2019-02-09T10:23:58.958Z,1015.02
2019-02-09T10:24:59.106Z,1015.09
2019-02-09T10:25:59.109Z,1015.07
2019-02-09T10:26:59.407Z,1015.07
2019-02-09T10:27:58.685Z,1015.01
2019-02-09T10:28:59.495Z,1015.06
2019-02-09T10:29:59.122Z,1015.1
2019-02-09T10:30:59.220Z,1015.08
2019-02-09T10:31:58.836Z,1015.1
2019-02-09T10:33:00.592Z,1015.07
2019-02-09T10:33:59.183Z,1015.03
2019-02-09T10:34:59.005Z,1015.02
2019-02-09T10:35:58.829Z,1015.06
2019-02-09T10:36:58.978Z,1015.03
2019-02-09T10:37:58.914Z,1015.04
2019-02-09T10:38:58.870Z,1015.07
2019-02-09T10:39:59.177Z,1015
2019-02-09T10:40:59.019Z,1015.08
2019-02-09T10:41:58.866Z,1015.11
2019-02-09T10:42:59.050Z,1015.06
2019-02-09T10:43:59.215Z,1015.09
2019-02-09T10:44:59.370Z,1015.12
2019-02-09T10:45:59.225Z,1015.13
2019-02-09T10:46:58.921Z,1015.11
2019-02-09T10:47:59.405Z,1015.14
2019-02-09T10:48:59.249Z,1015.12
2019-02-09T10:49:58.933Z,1015.06
2019-02-09T10:50:58.826Z,1014.99
2019-02-09T10:51:59.273Z,1014.99
2019-02-09T10:52:59.666Z,1014.98
2019-02-09T10:53:58.745Z,1015.02
2019-02-09T10:54:59.390Z,1014.99
2019-02-09T10:55:59.097Z,1015.06
2019-02-09T10:56:59.207Z,1015.05
2019-02-09T10:58:00.878Z,1015.05
2019-02-09T10:58:59.565Z,1015.06
2019-02-09T10:59:58.913Z,1015
2019-02-09T11:00:59.474Z,1015
2019-02-09T11:02:00.715Z,1015
2019-02-09T11:02:58.921Z,1015.06
2019-02-09T11:03:59.365Z,1015.04
2019-02-09T11:04:58.793Z,1015.08
2019-02-09T11:05:58.833Z,1014.99
2019-02-09T11:06:59.824Z,1015
2019-02-09T11:07:58.957Z,1014.98
2019-02-09T11:08:58.761Z,1015.05
2019-02-09T11:09:58.806Z,1015.03
2019-02-09T11:10:59.038Z,1015.03
2019-02-09T11:11:59.001Z,1014.99
2019-02-09T11:12:59.329Z,1015.05
2019-02-09T11:13:58.877Z,1014.98
2019-02-09T11:14:59.670Z,1014.95
2019-02-09T11:15:59.259Z,1014.95
2019-02-09T11:16:59.044Z,1014.97
2019-02-09T11:18:05.980Z,1014.98
2019-02-09T11:18:59.061Z,1014.98
2019-02-09T11:19:58.980Z,1014.99
2019-02-09T11:20:58.776Z,1015.01
2019-02-09T11:22:00.766Z,1014.96
2019-02-09T11:22:59.374Z,1015.02
2019-02-09T11:23:59.728Z,1014.94
2019-02-09T11:24:58.663Z,1014.94
2019-02-09T11:25:59.267Z,1015
2019-02-09T11:27:00.714Z,1014.92
2019-02-09T11:27:58.923Z,1015.01
2019-02-09T11:28:58.769Z,1014.9
2019-02-09T11:30:00.440Z,1014.89
2019-02-09T11:31:01.016Z,1014.92
2019-02-09T11:31:59.351Z,1014.91
2019-02-09T11:33:02.800Z,1015.02
2019-02-09T11:33:59.020Z,1014.87
2019-02-09T11:34:58.893Z,1014.92
2019-02-09T11:36:00.174Z,1014.79
2019-02-09T11:36:58.813Z,1014.83
2019-02-09T11:37:59.393Z,1014.78
2019-02-09T11:38:58.763Z,1014.81
2019-02-09T11:39:58.837Z,1014.73
2019-02-09T11:40:59.518Z,1014.79
2019-02-09T11:41:59.181Z,1014.93
2019-02-09T11:42:59.447Z,1014.78
2019-02-09T11:43:58.749Z,1014.83
2019-02-09T11:45:00.709Z,1014.84
2019-02-09T11:45:58.920Z,1014.77
2019-02-09T11:46:59.771Z,1014.81
2019-02-09T11:47:58.725Z,1014.83
2019-02-09T11:48:59.126Z,1014.87
2019-02-09T11:49:59.185Z,1014.83
2019-02-09T11:50:59.798Z,1014.83
2019-02-09T11:51:59.439Z,1014.82
2019-02-09T11:52:58.829Z,1014.81
2019-02-09T11:53:58.838Z,1014.87
2019-02-09T11:54:59.106Z,1014.89
2019-02-09T11:55:59.121Z,1014.85
2019-02-09T11:56:59.457Z,1014.8
2019-02-09T11:57:59.136Z,1014.83
2019-02-09T11:58:58.807Z,1014.78
2019-02-09T11:59:59.460Z,1014.77
2019-02-09T12:00:58.784Z,1014.76
2019-02-09T12:01:59.569Z,1014.76
2019-02-09T12:03:15.960Z,1014.75
2019-02-09T12:03:59.027Z,1014.76
2019-02-09T12:04:58.910Z,1014.7
2019-02-09T12:05:58.978Z,1014.83
2019-02-09T12:06:59.162Z,1014.76
2019-02-09T12:07:58.934Z,1014.82
2019-02-09T12:08:58.713Z,1014.8